Time;durP1;ratioP1;P1;durP2;ratioP2;P2;SDS_P1;SDS_P2;PMS_P1;PMS_P2;Temp;Humidity;BMP_temperature;BMP_pressure;BME280_temperature;BME280_humidity;BME280_pressure;Samples;Min_cycle;Max_cycle;Signal;HPM_P1;HPM_P2
2021/07/21 00:00:28;;;;;;;;;;;;;;;17.79;nan;99635.22;5016104;28;20396;-83
2021/07/21 00:02:56;;;;;;;;;;;;;;;17.69;nan;99627.94;5000154;28;19974;-83
2021/07/21 00:05:28;;;;;;;;;;;;;;;17.68;nan;99624.28;5000092;28;20384;-82
2021/07/21 00:07:56;;;;;;;;;;;;;;;17.66;nan;99620.38;5016494;28;20308;-82
2021/07/21 00:10:24;;;;;;;;;;;;;;;17.39;nan;99629.34;5015734;28;20390;-83
2021/07/21 00:15:41;;;;;;;;;;;;;;;17.21;nan;99645.28;5016152;28;19932;-83
2021/07/21 00:18:29;;;;;;;;;;;;;;;17.28;nan;99639.44;5016057;28;19926;-83
2021/07/21 00:20:56;;;;;;;;;;;;;;;17.30;nan;99642.56;5017461;28;20376;-82
2021/07/21 00:23:24;;;;;;;;;;;;;;;17.04;nan;99635.41;5016133;28;19932;-82
2021/07/21 00:25:52;;;;;;;;;;;;;;;16.87;nan;99653.69;5017050;28;19933;-82
2021/07/21 00:28:19;;;;;;;;;;;;;;;16.89;nan;99648.41;5016302;28;19926;-82
2021/07/21 00:30:46;;;;;;;;;;;;;;;16.78;nan;99650.75;5016841;28;19932;-82
2021/07/21 00:33:14;;;;;;;;;;;;;;;16.42;nan;99650.25;4999855;28;20012;-83
2021/07/21 00:35:42;;;;;;;;;;;;;;;16.78;nan;99657.19;5015894;28;19989;-83
2021/07/21 00:38:11;;;;;;;;;;;;;;;16.52;nan;99654.81;5016710;28;19992;-83
2021/07/21 00:40:39;;;;;;;;;;;;;;;16.63;nan;99656.03;5030623;28;19925;-83
2021/07/21 00:43:07;;;;;;;;;;;;;;;16.74;nan;99652.88;4999663;28;19925;-83
2021/07/21 00:45:35;;;;;;;;;;;;;;;16.60;nan;99650.53;5015853;28;19925;-83
2021/07/21 00:48:02;;;;;;;;;;;;;;;16.71;nan;99645.31;4999580;28;19926;-83
2021/07/21 00:50:31;;;;;;;;;;;;;;;16.80;nan;99648.25;4999067;28;19925;-83
2021/07/21 00:52:58;;;;;;;;;;;;;;;16.85;nan;99651.31;5015046;28;19936;-83
2021/07/21 00:55:26;;;;;;;;;;;;;;;16.85;nan;99644.88;4998794;28;19925;-83
2021/07/21 00:57:56;;;;;;;;;;;;;;;16.58;nan;99647.34;4999582;28;19933;-83
2021/07/21 01:00:25;;;;;;;;;;;;;;;16.80;nan;99648.25;4995595;28;19925;-82
2021/07/21 01:02:52;;;;;;;;;;;;;;;16.76;nan;99651.22;5007494;28;19931;-83
2021/07/21 01:05:31;;;;;;;;;;;;;;;16.86;nan;99654.91;4999034;28;19925;-82
2021/07/21 01:08:04;;;;;;;;;;;;;;;16.79;nan;99658.78;5015283;28;19925;-82
2021/07/21 01:11:03;;;;;;;;;;;;;;;16.48;nan;99659.78;4963977;28;20395;-82
2021/07/21 01:13:34;;;;;;;;;;;;;;;16.03;nan;99657.03;4981569;28;19926;-83
2021/07/21 01:16:12;;;;;;;;;;;;;;;16.32;nan;99662.63;4996659;28;19933;-83
2021/07/21 01:18:44;;;;;;;;;;;;;;;16.35;nan;99656.88;5011540;28;19971;-83
2021/07/21 01:21:20;;;;;;;;;;;;;;;16.39;nan;99663.19;5014907;28;19932;-83
2021/07/21 01:23:48;;;;;;;;;;;;;;;16.15;nan;99665.53;4998449;28;19933;-83
2021/07/21 01:26:26;;;;;;;;;;;;;;;16.37;nan;99667.72;5014939;28;19933;-83
2021/07/21 01:28:55;;;;;;;;;;;;;;;16.29;nan;99672.78;5014845;28;19926;-83
2021/07/21 01:31:35;;;;;;;;;;;;;;;15.95;nan;99667.72;5014788;28;19933;-83
2021/07/21 01:34:06;;;;;;;;;;;;;;;16.13;nan;99675.66;5014598;28;19975;-83
2021/07/21 01:36:36;;;;;;;;;;;;;;;16.11;nan;99667.63;4998608;28;20388;-83
2021/07/21 01:39:06;;;;;;;;;;;;;;;15.42;nan;99668.34;4998042;28;19929;-83
2021/07/21 01:41:37;;;;;;;;;;;;;;;15.80;nan;99682.63;5014773;28;20419;-83
2021/07/21 01:44:08;;;;;;;;;;;;;;;16.13;nan;99668.00;4998227;28;19925;-83
2021/07/21 01:46:40;;;;;;;;;;;;;;;16.21;nan;99677.84;4997885;28;19926;-83
2021/07/21 01:49:10;;;;;;;;;;;;;;;16.30;nan;99682.81;5010509;28;19929;-83
2021/07/21 01:51:42;;;;;;;;;;;;;;;15.69;nan;99677.28;5026305;28;20027;-83
2021/07/21 01:54:10;;;;;;;;;;;;;;;16.21;nan;99686.28;5014333;28;19926;-83
2021/07/21 01:57:00;;;;;;;;;;;;;;;16.21;nan;99680.66;4994924;28;19925;-83
2021/07/21 01:59:30;;;;;;;;;;;;;;;16.05;nan;99683.50;4997879;28;19925;-83
2021/07/21 02:02:10;;;;;;;;;;;;;;;16.12;nan;99688.97;4994540;28;19948;-83
2021/07/21 02:04:48;;;;;;;;;;;;;;;16.25;nan;99684.16;5001617;28;20391;-83
2021/07/21 02:07:16;;;;;;;;;;;;;;;15.87;nan;99693.72;5013684;28;20296;-83
2021/07/21 02:09:48;;;;;;;;;;;;;;;16.07;nan;99686.69;4997041;28;19932;-83
2021/07/21 02:12:33;;;;;;;;;;;;;;;16.26;nan;99682.13;5013712;28;19932;-83
2021/07/21 02:15:01;;;;;;;;;;;;;;;16.22;nan;99687.88;5013847;28;19925;-83
2021/07/21 02:17:29;;;;;;;;;;;;;;;16.23;nan;99678.19;4981461;28;19929;-83
2021/07/21 02:19:56;;;;;;;;;;;;;;;16.17;nan;99679.97;5024288;28;20376;-83
2021/07/21 02:22:33;;;;;;;;;;;;;;;16.08;nan;99682.63;4991150;28;19925;-83
2021/07/21 02:25:21;;;;;;;;;;;;;;;16.07;nan;99686.69;5027733;28;19979;-83
2021/07/21 02:27:49;;;;;;;;;;;;;;;16.16;nan;99684.00;5013853;28;20442;-83
2021/07/21 02:30:17;;;;;;;;;;;;;;;15.43;nan;99684.03;4997262;28;19932;-83
2021/07/21 02:33:04;;;;;;;;;;;;;;;15.78;nan;99688.69;4997298;28;19931;-83
2021/07/21 02:35:31;;;;;;;;;;;;;;;15.82;nan;99686.59;4977593;28;19932;-83
2021/07/21 02:37:59;;;;;;;;;;;;;;;15.89;nan;99685.59;5004355;28;19936;-83
2021/07/21 02:40:29;;;;;;;;;;;;;;;16.04;nan;99681.94;5000181;28;20388;-83
2021/07/21 02:43:09;;;;;;;;;;;;;;;16.06;nan;99685.13;5015325;28;19932;-83
2021/07/21 02:45:38;;;;;;;;;;;;;;;15.67;nan;99678.97;4997238;28;19926;-83
2021/07/21 02:48:10;;;;;;;;;;;;;;;15.54;nan;99681.72;4998073;28;19932;-83
2021/07/21 02:50:38;;;;;;;;;;;;;;;15.81;nan;99685.00;5013147;28;19979;-83
2021/07/21 02:53:10;;;;;;;;;;;;;;;15.75;nan;99688.81;4997150;28;19925;-83
2021/07/21 02:56:11;;;;;;;;;;;;;;;15.99;nan;99688.13;5014253;28;19925;-83
2021/07/21 02:58:45;;;;;;;;;;;;;;;15.90;nan;99690.03;4981686;28;19926;-83
2021/07/21 03:01:17;;;;;;;;;;;;;;;15.52;nan;99683.41;5013337;28;19932;-83
2021/07/21 03:03:46;;;;;;;;;;;;;;;15.81;nan;99684.22;4981471;28;19926;-83
2021/07/21 03:06:14;;;;;;;;;;;;;;;15.62;nan;99683.13;4977551;28;19926;-83
2021/07/21 03:09:02;;;;;;;;;;;;;;;15.58;nan;99671.16;4996860;28;19925;-83
2021/07/21 03:11:39;;;;;;;;;;;;;;;15.86;nan;99680.84;5012939;28;19929;-83
2021/07/21 03:14:07;;;;;;;;;;;;;;;15.79;nan;99681.84;4996809;28;19925;-83
2021/07/21 03:16:47;;;;;;;;;;;;;;;15.81;nan;99682.19;5028026;28;19925;-83
2021/07/21 03:19:23;;;;;;;;;;;;;;;15.67;nan;99685.41;4997780;28;19932;-83
2021/07/21 03:21:55;;;;;;;;;;;;;;;15.26;nan;99690.88;4996832;28;19925;-83
2021/07/21 03:24:25;;;;;;;;;;;;;;;15.40;nan;99687.72;5013174;28;19975;-83
2021/07/21 03:26:56;;;;;;;;;;;;;;;15.67;nan;99702.31;5003607;28;19932;-83
2021/07/21 03:29:37;;;;;;;;;;;;;;;15.85;nan;99696.19;4991238;28;19925;-83
2021/07/21 03:32:05;;;;;;;;;;;;;;;15.70;nan;99695.78;4994226;28;19926;-83
2021/07/21 03:34:34;;;;;;;;;;;;;;;15.82;nan;99697.88;5009214;28;19925;-83
2021/07/21 03:37:04;;;;;;;;;;;;;;;15.53;nan;99691.41;5022087;28;19979;-83
2021/07/21 03:39:58;;;;;;;;;;;;;;;15.47;nan;99700.81;5028585;28;19947;-83
2021/07/21 03:42:50;;;;;;;;;;;;;;;15.57;nan;99697.72;5012771;28;19931;-83
2021/07/21 03:45:24;;;;;;;;;;;;;;;15.73;nan;99700.53;5012870;28;19932;-83
2021/07/21 03:47:54;;;;;;;;;;;;;;;15.67;nan;99702.31;5012435;28;19926;-83
2021/07/21 03:50:26;;;;;;;;;;;;;;;15.81;nan;99696.28;4996541;28;19926;-83
2021/07/21 03:52:54;;;;;;;;;;;;;;;15.68;nan;99703.09;5012708;28;20400;-83
2021/07/21 03:55:28;;;;;;;;;;;;;;;15.76;nan;99702.47;4979792;28;19938;-82
2021/07/21 03:58:08;;;;;;;;;;;;;;;15.50;nan;99706.38;4986215;28;19926;-83
2021/07/21 04:00:58;;;;;;;;;;;;;;;15.35;nan;99696.66;4993126;28;19926;-83
2021/07/21 04:03:38;;;;;;;;;;;;;;;15.61;nan;99706.09;4979722;28;19929;-82
2021/07/21 04:06:09;;;;;;;;;;;;;;;15.43;nan;99706.56;4996020;28;19931;-83
2021/07/21 04:08:58;;;;;;;;;;;;;;;15.48;nan;99714.47;4996143;28;20018;-83
2021/07/21 04:11:30;;;;;;;;;;;;;;;15.43;nan;99712.19;5003883;28;19926;-83
2021/07/21 04:14:00;;;;;;;;;;;;;;;15.02;nan;99706.34;5007859;28;19930;-83
2021/07/21 04:16:50;;;;;;;;;;;;;;;15.42;nan;99719.03;5017099;28;20389;-83
2021/07/21 04:19:18;;;;;;;;;;;;;;;15.45;nan;99712.53;5000188;28;19930;-83
2021/07/21 04:21:48;;;;;;;;;;;;;;;15.52;nan;99723.63;5016367;28;19932;-83
2021/07/21 04:24:17;;;;;;;;;;;;;;;15.66;nan;99725.28;5000027;28;19929;-83
2021/07/21 04:26:45;;;;;;;;;;;;;;;15.70;nan;99715.50;5017147;28;19929;-83
2021/07/21 04:29:13;;;;;;;;;;;;;;;15.62;nan;99722.56;5015964;28;20363;-83
2021/07/21 04:31:42;;;;;;;;;;;;;;;15.66;nan;99728.09;4999033;28;20438;-83
2021/07/21 04:34:11;;;;;;;;;;;;;;;15.25;nan;99725.09;5008588;28;19929;-85
2021/07/21 04:36:39;;;;;;;;;;;;;;;15.54;nan;99731.63;5015668;28;19932;-81
2021/07/21 04:39:12;;;;;;;;;;;;;;;15.06;nan;99732.38;5016258;28;19929;-80
2021/07/21 04:42:14;;;;;;;;;;;;;;;14.72;nan;99737.59;4977361;28;19926;-80
2021/07/21 04:44:44;;;;;;;;;;;;;;;15.27;nan;99745.13;4978904;28;19925;-80
2021/07/21 04:47:13;;;;;;;;;;;;;;;15.54;nan;99742.91;4975316;28;20330;-80
2021/07/21 04:49:44;;;;;;;;;;;;;;;15.82;nan;99739.34;4955140;28;19926;-80
2021/07/21 04:52:16;;;;;;;;;;;;;;;15.98;nan;99742.91;4978902;28;19981;-80
2021/07/21 04:54:45;;;;;;;;;;;;;;;16.02;nan;99746.41;4978828;28;20434;-80
2021/07/21 04:57:12;;;;;;;;;;;;;;;16.14;nan;99747.72;4962993;28;19926;-80
2021/07/21 04:59:55;;;;;;;;;;;;;;;16.28;nan;99752.97;4959643;28;19930;-80
2021/07/21 05:02:26;;;;;;;;;;;;;;;16.23;nan;99751.50;4958443;28;19934;-80
2021/07/21 05:04:54;;;;;;;;;;;;;;;16.21;nan;99753.97;4966208;28;19926;-80
2021/07/21 05:07:35;;;;;;;;;;;;;;;16.51;nan;99763.25;4963619;28;19926;-80
2021/07/21 05:10:10;;;;;;;;;;;;;;;16.70;nan;99762.25;4978454;28;19929;-80
2021/07/21 05:12:44;;;;;;;;;;;;;;;16.73;nan;99770.63;4978467;28;19932;-80
2021/07/21 05:15:14;;;;;;;;;;;;;;;16.78;nan;99763.66;4995873;28;19981;-80
2021/07/21 05:17:48;;;;;;;;;;;;;;;16.41;nan;99772.75;5016513;28;19967;-80
2021/07/21 05:20:30;;;;;;;;;;;;;;;16.46;nan;99772.25;5017696;28;19935;-80
2021/07/21 05:23:05;;;;;;;;;;;;;;;16.67;nan;99772.44;4999378;28;19925;-80
2021/07/21 05:25:40;;;;;;;;;;;;;;;16.64;nan;99781.78;5016268;28;19925;-80
2021/07/21 05:28:26;;;;;;;;;;;;;;;16.47;nan;99787.91;4987215;28;19925;-80
2021/07/21 05:30:58;;;;;;;;;;;;;;;16.84;nan;99790.06;4985357;28;19926;-80
2021/07/21 05:33:28;;;;;;;;;;;;;;;17.22;nan;99794.50;4999089;28;19925;-80
2021/07/21 05:35:57;;;;;;;;;;;;;;;17.39;nan;99789.53;5014925;28;20322;-80
2021/07/21 05:38:25;;;;;;;;;;;;;;;17.64;nan;99798.06;5014756;28;19933;-81
2021/07/21 05:40:53;;;;;;;;;;;;;;;17.73;nan;99793.31;5014889;28;19925;-81
2021/07/21 05:43:29;;;;;;;;;;;;;;;17.52;nan;99796.03;5014555;28;19932;-81
2021/07/21 05:46:03;;;;;;;;;;;;;;;17.72;nan;99807.88;5014673;28;19975;-81
2021/07/21 05:48:36;;;;;;;;;;;;;;;18.04;nan;99803.97;4986001;28;19932;-81
2021/07/21 05:51:23;;;;;;;;;;;;;;;18.37;nan;99806.06;5015657;28;20261;-81
2021/07/21 05:53:59;;;;;;;;;;;;;;;18.60;nan;99802.00;5007666;28;19925;-84
2021/07/21 05:56:26;;;;;;;;;;;;;;;18.78;nan;99800.06;4998804;28;19948;-82
2021/07/21 05:58:59;;;;;;;;;;;;;;;19.04;nan;99800.69;5010925;28;19925;-80
2021/07/21 06:01:28;;;;;;;;;;;;;;;19.12;nan;99811.31;5006261;28;20665;-80
2021/07/21 06:03:56;;;;;;;;;;;;;;;19.04;nan;99810.00;5014211;28;19925;-80
2021/07/21 06:06:33;;;;;;;;;;;;;;;19.39;nan;99808.63;4999189;28;20534;-80
2021/07/21 06:09:06;;;;;;;;;;;;;;;19.50;nan;99809.00;5012928;28;19975;-80
2021/07/21 06:11:52;;;;;;;;;;;;;;;19.75;nan;99818.53;5010940;28;20281;-80
2021/07/21 06:14:21;;;;;;;;;;;;;;;19.91;nan;99815.44;4999265;28;19941;-81
2021/07/21 06:16:50;;;;;;;;;;;;;;;20.11;nan;99818.63;5015616;28;20261;-81
2021/07/21 06:19:18;;;;;;;;;;;;;;;20.31;nan;99813.34;5017421;28;19983;-81
2021/07/21 06:21:46;;;;;;;;;;;;;;;20.40;nan;99808.44;5014683;28;19926;-81
2021/07/21 06:24:32;;;;;;;;;;;;;;;20.44;nan;99814.75;5014448;28;19925;-81
2021/07/21 06:27:05;;;;;;;;;;;;;;;20.62;nan;99816.81;4997464;28;19925;-80
2021/07/21 06:29:47;;;;;;;;;;;;;;;20.85;nan;99821.84;4997844;28;20445;-80
2021/07/21 06:32:14;;;;;;;;;;;;;;;20.95;nan;99817.75;5011085;28;20342;-79
2021/07/21 06:34:42;;;;;;;;;;;;;;;20.83;nan;99830.03;5012488;28;19925;-79
2021/07/21 06:37:14;;;;;;;;;;;;;;;20.92;nan;99830.81;5009407;28;20287;-79
2021/07/21 06:39:42;;;;;;;;;;;;;;;20.93;nan;99823.09;4996209;28;19929;-80
2021/07/21 06:42:11;;;;;;;;;;;;;;;20.31;nan;99827.53;5007924;28;20264;-79
2021/07/21 06:44:48;;;;;;;;;;;;;;;20.76;nan;99833.22;5011026;28;19931;-79
2021/07/21 06:47:21;;;;;;;;;;;;;;;20.92;nan;99824.34;4994905;28;19936;-80
2021/07/21 06:49:53;;;;;;;;;;;;;;;21.10;nan;99821.50;5007901;28;19933;-84
2021/07/21 06:52:23;;;;;;;;;;;;;;;20.81;nan;99833.34;5000317;28;19931;-81
2021/07/21 06:54:52;;;;;;;;;;;;;;;21.16;nan;99822.44;5010512;28;19931;-82
2021/07/21 06:57:26;;;;;;;;;;;;;;;21.74;nan;99831.44;5009941;28;19925;-81
2021/07/21 07:00:17;;;;;;;;;;;;;;;22.63;nan;99823.59;4997984;28;20390;-83
2021/07/21 07:03:10;;;;;;;;;;;;;;;23.66;nan;99795.94;5012862;28;20614;-81
2021/07/21 07:05:41;;;;;;;;;;;;;;;25.18;nan;99794.75;4993684;28;20684;-83
2021/07/21 07:08:27;;;;;;;;;;;;;;;25.26;nan;99790.16;5014256;28;19953;-80
2021/07/21 07:11:19;;;;;;;;;;;;;;;25.31;nan;99795.13;5016024;28;20335;-81
2021/07/21 07:13:49;;;;;;;;;;;;;;;25.69;nan;99788.97;5018852;28;19932;-83
2021/07/21 07:16:20;;;;;;;;;;;;;;;25.07;nan;99786.06;4995529;28;20395;-82
2021/07/21 07:18:50;;;;;;;;;;;;;;;26.12;nan;99787.72;4999579;28;19933;-82
2021/07/21 07:21:17;;;;;;;;;;;;;;;26.18;nan;99785.66;5043556;28;20338;-82
2021/07/21 07:28:43;;;;;;;;;;;;;;;28.16;nan;99772.88;5021555;28;19932;-83
2021/07/21 07:31:20;;;;;;;;;;;;;;;27.63;nan;99767.50;4989139;28;19929;-83
2021/07/21 07:33:47;;;;;;;;;;;;;;;28.27;nan;99781.47;5005795;28;19932;-82
2021/07/21 07:36:15;;;;;;;;;;;;;;;29.46;nan;99771.91;5017680;28;19932;-83
2021/07/21 07:38:46;;;;;;;;;;;;;;;29.73;nan;99762.25;5008836;28;19926;-84
2021/07/21 07:41:16;;;;;;;;;;;;;;;29.81;nan;99764.56;5012782;28;19974;-84
2021/07/21 07:43:44;;;;;;;;;;;;;;;28.15;nan;99777.06;4984388;28;20571;-83
2021/07/21 07:46:11;;;;;;;;;;;;;;;28.01;nan;99772.41;5020860;28;19929;-83
2021/07/21 07:48:39;;;;;;;;;;;;;;;28.49;nan;99772.78;5017492;28;20373;-83
2021/07/21 07:51:06;;;;;;;;;;;;;;;29.40;nan;99771.19;5012377;28;20427;-83
2021/07/21 07:53:44;;;;;;;;;;;;;;;30.26;nan;99765.66;5011376;28;19926;-81
2021/07/21 07:56:11;;;;;;;;;;;;;;;28.76;nan;99769.00;5015751;28;20350;-84
2021/07/21 07:58:39;;;;;;;;;;;;;;;26.86;nan;99785.41;5027379;28;20368;-86
2021/07/21 08:15:55;;;;;;;;;;;;;;;31.54;nan;99774.03;5847077;23;19936;-82
2021/07/21 08:18:23;;;;;;;;;;;;;;;32.02;nan;99774.50;4846854;29;19928;-79
2021/07/21 08:20:52;;;;;;;;;;;;;;;32.74;nan;99770.94;4858300;29;19976;-83
2021/07/21 08:23:20;;;;;;;;;;;;;;;32.80;nan;99765.81;4860568;29;20384;-85
2021/07/21 08:25:47;;;;;;;;;;;;;;;32.94;nan;99764.44;4865266;29;19928;-84
2021/07/21 08:28:18;;;;;;;;;;;;;;;33.03;nan;99772.69;4860711;29;19933;-79
2021/07/21 08:30:46;;;;;;;;;;;;;;;32.96;nan;99767.56;4862322;29;20596;-78
2021/07/21 08:33:13;;;;;;;;;;;;;;;32.45;nan;99775.00;4863441;29;20296;-78
2021/07/21 08:35:44;;;;;;;;;;;;;;;31.68;nan;99779.31;4847686;29;20611;-78
2021/07/21 08:38:12;;;;;;;;;;;;;;;30.96;nan;99779.69;4859463;29;19935;-77
2021/07/21 08:40:48;;;;;;;;;;;;;;;29.61;nan;99792.44;4842183;29;19928;-77
2021/07/21 08:43:24;;;;;;;;;;;;;;;29.08;nan;99789.50;4866435;29;19936;-86
2021/07/21 08:45:54;;;;;;;;;;;;;;;28.74;nan;99797.50;4861296;29;19932;-82
2021/07/21 08:48:21;;;;;;;;;;;;;;;29.78;nan;99795.19;4858659;29;19928;-81
2021/07/21 08:51:10;;;;;;;;;;;;;;;30.48;nan;99789.22;4853262;29;19931;-80
2021/07/21 08:53:37;;;;;;;;;;;;;;;30.33;nan;99782.34;4843670;29;19932;-81
2021/07/21 08:56:05;;;;;;;;;;;;;;;30.73;nan;99792.84;4831710;29;19936;-82
2021/07/21 08:58:33;;;;;;;;;;;;;;;31.31;nan;99785.97;4838827;29;19932;-81
2021/07/21 09:01:00;;;;;;;;;;;;;;;31.88;nan;99781.63;4839884;29;19929;-82
2021/07/21 09:03:27;;;;;;;;;;;;;;;32.05;nan;99778.41;4824930;29;19928;-82
2021/07/21 09:05:55;;;;;;;;;;;;;;;31.79;nan;99779.13;4843792;29;19989;-83
2021/07/21 09:08:22;;;;;;;;;;;;;;;32.02;nan;99785.31;4850703;29;19929;-83
2021/07/21 09:10:49;;;;;;;;;;;;;;;32.04;nan;99786.28;4841557;29;20285;-82
2021/07/21 09:13:17;;;;;;;;;;;;;;;29.31;nan;99780.16;4843493;29;19988;-82
2021/07/21 09:15:48;;;;;;;;;;;;;;;30.66;nan;99793.44;4850214;29;19935;-82
2021/07/21 09:18:16;;;;;;;;;;;;;;;30.79;nan;99796.47;4825293;29;19928;-89
2021/07/21 09:20:46;;;;;;;;;;;;;;;30.89;nan;99800.50;4840829;29;19929;-82
2021/07/21 09:23:13;;;;;;;;;;;;;;;30.71;nan;99796.28;4842000;29;19932;-83
2021/07/21 09:25:42;;;;;;;;;;;;;;;30.54;nan;99792.03;4848311;29;19972;-86
2021/07/21 09:28:10;;;;;;;;;;;;;;;30.47;nan;99796.31;4854685;29;19928;-85
2021/07/21 09:30:45;;;;;;;;;;;;;;;30.77;nan;99799.09;4813677;29;19932;-80
2021/07/21 09:33:18;;;;;;;;;;;;;;;31.04;nan;99789.25;4846412;29;19928;-82
2021/07/21 09:35:51;;;;;;;;;;;;;;;30.80;nan;99793.03;4839857;29;20135;-82
2021/07/21 09:38:19;;;;;;;;;;;;;;;30.81;nan;99805.34;4840309;29;19932;-81
2021/07/21 09:40:48;;;;;;;;;;;;;;;30.71;nan;99807.81;4842405;29;19936;-84
2021/07/21 09:43:17;;;;;;;;;;;;;;;30.69;nan;99803.88;4853560;29;19928;-84
2021/07/21 09:45:46;;;;;;;;;;;;;;;29.78;nan;99801.75;4834316;29;20015;-83
2021/07/21 09:48:14;;;;;;;;;;;;;;;30.21;nan;99816.28;4853325;29;19935;-83
2021/07/21 09:50:46;;;;;;;;;;;;;;;29.95;nan;99803.69;4841372;29;19928;-83
2021/07/21 09:53:14;;;;;;;;;;;;;;;29.37;nan;99812.53;4839749;29;19939;-82
2021/07/21 09:55:43;;;;;;;;;;;;;;;30.00;nan;99823.81;4852803;29;19987;-82
2021/07/21 09:58:11;;;;;;;;;;;;;;;29.75;nan;99807.81;4833882;29;19928;-82
2021/07/21 10:00:40;;;;;;;;;;;;;;;29.52;nan;99812.19;4836115;29;19932;-84
2021/07/21 10:03:24;;;;;;;;;;;;;;;29.51;nan;99819.25;4839869;29;19928;-81
2021/07/21 10:06:06;;;;;;;;;;;;;;;29.44;nan;99828.47;4841105;29;19928;-83
2021/07/21 10:08:48;;;;;;;;;;;;;;;29.88;nan;99830.22;4853414;29;19928;-81
2021/07/21 10:11:29;;;;;;;;;;;;;;;29.96;nan;99822.53;4835607;29;19928;-82
2021/07/21 10:14:03;;;;;;;;;;;;;;;30.05;nan;99819.31;4852384;29;19933;-82
2021/07/21 10:16:43;;;;;;;;;;;;;;;30.21;nan;99822.03;4827662;29;19980;-82
2021/07/21 10:19:17;;;;;;;;;;;;;;;29.85;nan;99828.41;4845737;29;19936;-83
2021/07/21 10:21:51;;;;;;;;;;;;;;;29.67;nan;99824.13;4847734;29;19932;-81
2021/07/21 10:24:20;;;;;;;;;;;;;;;29.60;nan;99828.34;4847949;29;19958;-82
2021/07/21 10:26:48;;;;;;;;;;;;;;;29.75;nan;99825.09;4845162;29;20307;-81
2021/07/21 10:29:15;;;;;;;;;;;;;;;29.23;nan;99819.44;4847673;29;20131;-81
2021/07/21 10:31:43;;;;;;;;;;;;;;;29.31;nan;99826.19;4832119;29;19940;-81
2021/07/21 10:34:10;;;;;;;;;;;;;;;28.31;nan;99830.81;4851660;29;20281;-82
2021/07/21 10:36:38;;;;;;;;;;;;;;;27.69;nan;99831.41;4833704;29;20373;-82
2021/07/21 10:39:10;;;;;;;;;;;;;;;27.31;nan;99841.59;4848674;29;19935;-81
2021/07/21 10:41:37;;;;;;;;;;;;;;;27.45;nan;99842.63;4851537;29;20406;-81
2021/07/21 10:44:07;;;;;;;;;;;;;;;28.24;nan;99842.09;4823780;29;19935;-81
2021/07/21 10:46:41;;;;;;;;;;;;;;;28.70;nan;99843.00;4850145;29;19929;-81
2021/07/21 10:49:14;;;;;;;;;;;;;;;28.73;nan;99827.59;4803002;29;19928;-80
2021/07/21 10:52:37;;;;;;;;;;;;;;;28.49;nan;99823.75;4830415;29;19963;-81
2021/07/21 10:54:52;;;;;;;;;;;;;;;28.39;nan;99825.31;4805296;29;19929;-83
2021/07/21 11:00:18;;;;;;;;;;;;;;;26.87;nan;99834.94;4845273;29;19929;-80
2021/07/21 11:02:45;;;;;;;;;;;;;;;27.21;nan;99830.84;4840922;29;19928;-80
2021/07/21 11:05:32;;;;;;;;;;;;;;;27.43;nan;99836.66;4826347;29;19935;-81
2021/07/21 11:08:01;;;;;;;;;;;;;;;27.91;nan;99828.59;4834396;29;19933;-82
2021/07/21 11:10:38;;;;;;;;;;;;;;;27.66;nan;99833.25;4851466;29;19939;-82
2021/07/21 11:13:07;;;;;;;;;;;;;;;27.99;nan;99832.50;4845433;29;19932;-82
2021/07/21 11:15:34;;;;;;;;;;;;;;;27.54;nan;99830.91;4847114;29;19934;-83
2021/07/21 11:18:20;;;;;;;;;;;;;;;26.81;nan;99828.41;4843774;29;20387;-81
2021/07/21 11:20:55;;;;;;;;;;;;;;;26.80;nan;99839.09;4855876;29;19928;-81
2021/07/21 11:23:58;;;;;;;;;;;;;;;27.21;nan;99836.59;4848682;29;19953;-82
2021/07/21 11:26:31;;;;;;;;;;;;;;;27.59;nan;99824.38;4789457;29;19933;-81
2021/07/21 11:29:18;;;;;;;;;;;;;;;26.95;nan;99836.00;4810053;29;20325;-81
2021/07/21 11:31:48;;;;;;;;;;;;;;;27.21;nan;99822.25;4776672;29;19943;-82
2021/07/21 11:34:16;;;;;;;;;;;;;;;27.92;nan;99821.50;4804720;29;19932;-80
2021/07/21 11:36:46;;;;;;;;;;;;;;;28.06;nan;99829.88;4805735;29;19931;-81
2021/07/21 11:39:32;;;;;;;;;;;;;;;28.25;nan;99824.31;4789500;29;19929;-85
2021/07/21 11:42:00;;;;;;;;;;;;;;;28.30;nan;99829.28;4804312;29;19965;-85
2021/07/21 11:44:29;;;;;;;;;;;;;;;26.66;nan;99824.97;4804151;29;20101;-84
2021/07/21 11:46:57;;;;;;;;;;;;;;;26.65;nan;99829.13;4804110;29;19989;-85
2021/07/21 11:49:26;;;;;;;;;;;;;;;27.10;nan;99819.34;4804606;29;19962;-83
2021/07/21 11:51:55;;;;;;;;;;;;;;;26.76;nan;99829.97;4789549;29;19929;-83
2021/07/21 11:54:23;;;;;;;;;;;;;;;26.92;nan;99822.69;4789328;29;19930;-82
2021/07/21 11:56:51;;;;;;;;;;;;;;;27.27;nan;99815.25;4801823;29;19930;-85
2021/07/21 11:59:25;;;;;;;;;;;;;;;27.05;nan;99818.03;4790623;29;19933;-87
2021/07/21 12:02:04;;;;;;;;;;;;;;;27.21;nan;99820.16;4839447;29;19929;-86
2021/07/21 12:04:31;;;;;;;;;;;;;;;26.39;nan;99812.84;4825989;29;19932;-85
2021/07/21 12:06:59;;;;;;;;;;;;;;;26.77;nan;99814.31;4815772;29;19928;-86
2021/07/21 12:09:30;;;;;;;;;;;;;;;26.55;nan;99811.38;4821574;29;19939;-85
2021/07/21 12:12:28;;;;;;;;;;;;;;;27.22;nan;99809.47;4858223;29;20505;-85
2021/07/21 12:14:59;;;;;;;;;;;;;;;26.80;nan;99801.03;4850357;29;19932;-86
2021/07/21 12:17:26;;;;;;;;;;;;;;;27.17;nan;99815.97;4839012;29;19932;-83
2021/07/21 12:19:53;;;;;;;;;;;;;;;27.15;nan;99809.97;4858523;29;19929;-81
2021/07/21 12:22:21;;;;;;;;;;;;;;;26.42;nan;99811.03;4838356;29;19932;-83
2021/07/21 12:24:49;;;;;;;;;;;;;;;26.61;nan;99811.38;4841190;29;19928;-83
2021/07/21 12:27:21;;;;;;;;;;;;;;;27.14;nan;99814.94;4838999;29;20323;-82
2021/07/21 12:29:49;;;;;;;;;;;;;;;27.66;nan;99806.63;4849169;29;19928;-82
2021/07/21 12:32:17;;;;;;;;;;;;;;;27.80;nan;99797.75;4826285;29;19929;-83
2021/07/21 12:34:49;;;;;;;;;;;;;;;26.72;nan;99809.34;4841380;29;20164;-83
2021/07/21 12:37:22;;;;;;;;;;;;;;;26.53;nan;99811.09;4843947;29;19932;-82
2021/07/21 12:39:50;;;;;;;;;;;;;;;27.26;nan;99807.16;4845796;29;19928;-83
2021/07/21 12:42:21;;;;;;;;;;;;;;;27.25;nan;99805.59;4848558;29;19929;-83
2021/07/21 12:44:59;;;;;;;;;;;;;;;26.98;nan;99818.56;4845268;29;19928;-82
2021/07/21 12:47:28;;;;;;;;;;;;;;;27.30;nan;99807.69;4847026;29;19932;-82
2021/07/21 12:49:57;;;;;;;;;;;;;;;27.56;nan;99805.34;4832098;29;20319;-82
2021/07/21 12:52:48;;;;;;;;;;;;;;;27.38;nan;99812.41;4842415;29;20414;-83
2021/07/21 12:55:16;;;;;;;;;;;;;;;27.73;nan;99803.25;4844729;29;19929;-83
2021/07/21 12:57:45;;;;;;;;;;;;;;;27.73;nan;99812.63;4832099;29;19928;-85
2021/07/21 13:00:16;;;;;;;;;;;;;;;27.43;nan;99817.34;4845658;29;20384;-84
2021/07/21 13:03:01;;;;;;;;;;;;;;;28.13;nan;99802.66;4861888;29;19936;-83
2021/07/21 13:05:47;;;;;;;;;;;;;;;28.42;nan;99807.81;4852328;29;19928;-83
2021/07/21 13:08:17;;;;;;;;;;;;;;;28.71;nan;99792.81;4844225;29;19929;-83
2021/07/21 13:10:45;;;;;;;;;;;;;;;27.64;nan;99804.28;4829127;29;20397;-83
2021/07/21 13:13:23;;;;;;;;;;;;;;;27.36;nan;99803.50;4843880;29;19928;-83
2021/07/21 13:16:01;;;;;;;;;;;;;;;26.87;nan;99803.41;4828699;29;20591;-83
2021/07/21 13:18:30;;;;;;;;;;;;;;;27.19;nan;99804.78;4828826;29;20300;-83
2021/07/21 13:20:57;;;;;;;;;;;;;;;26.45;nan;99796.47;4845031;29;19984;-83
2021/07/21 13:23:26;;;;;;;;;;;;;;;26.79;nan;99800.28;4846020;29;19928;-79
2021/07/21 13:26:09;;;;;;;;;;;;;;;26.57;nan;99803.00;4859155;29;19935;-79
2021/07/21 13:28:43;;;;;;;;;;;;;;;27.20;nan;99809.22;4841046;29;19933;-79
2021/07/21 13:31:13;;;;;;;;;;;;;;;27.48;nan;99795.69;4844306;29;20401;-79
2021/07/21 13:33:40;;;;;;;;;;;;;;;27.43;nan;99796.47;4828160;29;19928;-79
2021/07/21 13:36:12;;;;;;;;;;;;;;;27.47;nan;99797.00;4828370;29;20389;-80
2021/07/21 13:38:50;;;;;;;;;;;;;;;27.50;nan;99795.94;4831877;29;19932;-79
2021/07/21 13:41:27;;;;;;;;;;;;;;;27.31;nan;99797.78;4844468;29;20369;-79
2021/07/21 13:43:55;;;;;;;;;;;;;;;27.50;nan;99791.00;4843185;29;19928;-79
2021/07/21 13:46:32;;;;;;;;;;;;;;;27.53;nan;99789.16;4843425;29;20388;-80
2021/07/21 13:49:00;;;;;;;;;;;;;;;27.50;nan;99782.38;4843027;29;20403;-80
2021/07/21 13:51:28;;;;;;;;;;;;;;;27.54;nan;99791.50;4828350;29;19935;-80
2021/07/21 13:53:55;;;;;;;;;;;;;;;27.52;nan;99793.34;4843043;29;20285;-80
2021/07/21 13:56:22;;;;;;;;;;;;;;;27.46;nan;99783.97;4844227;29;19932;-80
2021/07/21 13:58:51;;;;;;;;;;;;;;;28.18;nan;99793.25;4842747;29;20400;-80
2021/07/21 14:01:18;;;;;;;;;;;;;;;28.19;nan;99777.56;4846897;29;19942;-80